| time (UTC) | temp C | wind direction | speed KPH | gust KPH | rain 1hr cm | rain 24hr cm | rain mn cm | humidity % | barometer mb |
| 20260507063944 | 15 | 209 | 8.0 | 17.7 | 0.00 | 0.30 | 0.00 | 67 | 1012.8 |
| 20260507062946 | 15 | 190 | 6.4 | 16.1 | 0.00 | 0.38 | 0.00 | 67 | 1012.8 |
| 20260507060943 | 15 | 209 | 3.2 | 8.0 | 0.00 | 0.46 | 0.00 | 69 | 1012.6 |
| 20260507054943 | 14 | 217 | 3.2 | 9.7 | 0.00 | 0.61 | 0.00 | 71 | 1012.4 |
| 20260507053943 | 13 | 189 | 1.6 | 4.8 | 0.00 | 0.64 | 0.00 | 74 | 1012.3 |
| 20260507052947 | 13 | 189 | 1.6 | 8.0 | 0.00 | 0.66 | 0.00 | 76 | 1012.1 |
| 20260507051944 | 12 | 197 | 4.8 | 8.0 | 0.00 | 0.69 | 0.00 | 78 | 1012.1 |
| 20260507044944 | 11 | 203 | 1.6 | 3.2 | 0.00 | 0.76 | 0.00 | 86 | 1011.9 |
| 20260507043944 | 11 | 203 | 0.0 | 6.4 | 0.00 | 0.79 | 0.00 | 85 | 1011.7 |
| 20260506203944 | 16 | 186 | 3.2 | 8.0 | 0.00 | 2.29 | 2.29 | 61 | 1010.3 |
| 20260506202943 | 16 | 195 | 1.6 | 8.0 | 0.00 | 2.29 | 2.29 | 61 | 1010.2 |
| 20260506201943 | 17 | 219 | 6.4 | 9.7 | 0.00 | 2.29 | 2.29 | 59 | 1010.0 |
| 20260506200943 | 17 | 237 | 4.8 | 9.7 | 0.00 | 2.29 | 2.29 | 58 | 1009.9 |
| 20260506195943 | 17 | 230 | 6.4 | 16.1 | 0.00 | 2.29 | 2.29 | 57 | 1009.8 |
| 20260506194944 | 17 | 231 | 6.4 | 16.1 | 0.00 | 2.29 | 2.29 | 56 | 1009.6 |
| 20260506193944 | 18 | 234 | 4.8 | 17.7 | 0.00 | 2.29 | 2.29 | 55 | 1009.4 |
| 20260506192948 | 18 | 182 | 4.8 | 16.1 | 0.00 | 2.29 | 2.29 | 54 | 1009.3 |
| 20260506191944 | 18 | 161 | 6.4 | 22.5 | 0.00 | 2.29 | 2.29 | 54 | 1009.0 |
| 20260506190943 | 18 | 110 | 8.0 | 19.3 | 0.00 | 2.29 | 2.29 | 54 | 1009.1 |
| 20260506185943 | 18 | 228 | 9.7 | 19.3 | 0.00 | 2.29 | 2.29 | 56 | 1009.1 |
| 20260506184943 | 18 | 227 | 9.7 | 19.3 | 0.00 | 2.29 | 2.29 | 57 | 1008.9 |
| 20260506183943 | 18 | 158 | 6.4 | 14.5 | 0.00 | 2.29 | 2.29 | 57 | 1008.8 |
| 20260506182943 | 18 | 176 | 6.4 | 19.3 | 0.00 | 2.29 | 2.29 | 57 | 1008.8 |
| 20260506181943 | 19 | 213 | 4.8 | 9.7 | 0.00 | 2.29 | 2.29 | 59 | 1008.6 |
| 20260506180943 | 19 | 155 | 3.2 | 14.5 | 0.00 | 2.29 | 2.29 | 59 | 1008.6 |
| 20260506174943 | 19 | 195 | 3.2 | 16.1 | 0.00 | 2.29 | 2.29 | 60 | 1008.4 |
| 20260506164943 | 20 | 226 | 4.8 | 17.7 | 0.00 | 2.29 | 2.29 | 68 | 1008.0 |
| 20260506163943 | 20 | 197 | 8.0 | 16.1 | 0.00 | 2.29 | 2.29 | 66 | 1008.0 |
| 20260506162943 | 20 | 196 | 6.4 | 11.3 | 0.00 | 2.29 | 2.29 | 67 | 1008.1 |
| 20260506160943 | 20 | 196 | 4.8 | 17.7 | 0.00 | 2.29 | 2.29 | 68 | 1008.0 |
| 20260506155944 | 20 | 178 | 8.0 | 17.7 | 0.00 | 2.29 | 2.29 | 69 | 1007.9 |
| 20260506154943 | 19 | 176 | 6.4 | 16.1 | 0.00 | 2.29 | 2.29 | 70 | 1007.8 |
| 20260506152943 | 19 | 175 | 6.4 | 9.7 | 0.00 | 2.29 | 2.29 | 72 | 1008.1 |
| 20260506151943 | 19 | 137 | 1.6 | 6.4 | 0.00 | 2.29 | 2.29 | 73 | 1008.1 |
| 20260506145946 | 19 | 127 | 8.0 | 20.9 | 0.00 | 2.29 | 2.29 | 74 | 1008.2 |
| 20260506144943 | 19 | 127 | 8.0 | 20.9 | 0.00 | 2.29 | 2.29 | 74 | 1008.2 |
| 20260506143945 | 19 | 189 | 1.6 | 16.1 | 0.00 | 2.29 | 2.29 | 74 | 1008.2 |
| 20260506142943 | 19 | 217 | 8.0 | 22.5 | 0.00 | 2.29 | 2.29 | 73 | 1008.1 |
| 20260506141943 | 19 | 252 | 4.8 | 17.7 | 0.00 | 2.29 | 2.29 | 75 | 1008.0 |
| 20260506140943 | 19 | 266 | 8.0 | 19.3 | 0.00 | 2.29 | 2.29 | 75 | 1008.2 |
| 20260506134943 | 19 | 228 | 6.4 | 27.4 | 0.00 | 2.29 | 2.29 | 73 | 1008.6 |
| 20260506133943 | 18 | 226 | 11.3 | 17.7 | 0.00 | 2.29 | 2.29 | 76 | 1008.5 |
| 20260506132944 | 18 | 203 | 9.7 | 22.5 | 0.00 | 2.29 | 2.29 | 78 | 1009.0 |
| 20260506131943 | 18 | 169 | 4.8 | 14.5 | 0.00 | 2.29 | 2.29 | 82 | 1008.8 |
| 20260506130943 | 18 | 200 | 4.8 | 16.1 | 0.03 | 2.29 | 2.29 | 84 | 1009.3 |
| 20260506125944 | 18 | 213 | 8.0 | 20.9 | 0.03 | 2.26 | 2.29 | 84 | 1009.3 |
| 20260506122945 | 18 | 188 | 3.2 | 6.4 | 0.05 | 2.26 | 2.29 | 88 | 1009.1 |
| 20260506121943 | 18 | 103 | 3.2 | 8.0 | 0.05 | 2.26 | 2.29 | 89 | 1009.0 |
| 20260506120944 | 18 | 283 | 1.6 | 16.1 | 0.03 | 2.26 | 2.26 | 88 | 1009.5 |
| 20260506115943 | 18 | 259 | 4.8 | 25.7 | 0.03 | 2.24 | 2.26 | 88 | 1009.4 |
| 20260506114944 | 18 | 212 | 12.9 | 25.7 | 0.03 | 2.24 | 2.24 | 79 | 1009.2 |
| 20260506112944 | 19 | 200 | 8.0 | 19.3 | 0.00 | 2.24 | 2.24 | 76 | 1008.9 |
| 20260506110944 | 19 | 202 | 8.0 | 22.5 | 0.00 | 2.24 | 2.24 | 75 | 1009.0 |
| 20260506103945 | 18 | 124 | 3.2 | 9.7 | 0.00 | 2.24 | 2.24 | 85 | 1009.1 |
| 20260506102944 | 18 | 66 | 1.6 | 14.5 | 0.00 | 2.24 | 2.24 | 88 | 1009.1 |
| 20260506101944 | 18 | 92 | 6.4 | 19.3 | 0.00 | 2.24 | 2.24 | 88 | 1009.3 |
| 20260506100944 | 18 | 104 | 6.4 | 14.5 | 0.00 | 2.24 | 2.24 | 90 | 1009.3 |
| 20260506094944 | 17 | 120 | 8.0 | 16.1 | 0.00 | 2.36 | 2.24 | 91 | 1009.3 |
| 20260506093946 | 16 | 62 | 6.4 | 11.3 | 0.03 | 2.39 | 2.24 | 91 | 1009.2 |
| 20260506084944 | 15 | 93 | 6.4 | 8.0 | 0.10 | 2.39 | 2.24 | 91 | 1009.5 |
| 20260506083944 | 15 | 94 | 1.6 | 11.3 | 0.10 | 2.41 | 2.21 | 91 | 1009.6 |
| 20260506082946 | 15 | 56 | 3.2 | 11.3 | 0.13 | 2.41 | 2.21 | 91 | 1009.5 |
| 20260506081944 | 15 | 106 | 8.0 | 14.5 | 0.15 | 2.41 | 2.18 | 91 | 1009.4 |
| 20260506080943 | 15 | 111 | 1.6 | 4.8 | 0.15 | 2.41 | 2.16 | 91 | 1009.3 |
| 20260506072943 | 15 | 133 | 3.2 | 14.5 | 0.13 | 2.29 | 2.08 | 91 | 1009.5 |
| 20260506071944 | 14 | 107 | 8.0 | 14.5 | 0.15 | 2.29 | 2.03 | 91 | 1009.6 |
| 20260506070943 | 14 | 110 | 6.4 | 17.7 | 0.18 | 2.31 | 2.03 | 91 | 1009.7 |